Main page
METAR-TAF:

METAR-TAF

Airports :

Kassel, Germany

Kassel Airport

latitude: 51-24N, longitude: 009-23E, elevation: 277 m

Current weather observation

The report was made 9 hours and 40 minutes ago, at 18:50 UTC
Wind 2 kt from variable directions
Temperature 2°C
Humidity 100%
Pressure 1025 hPa
Visibility: 7000 m
Few clouds at a height of 200 ft
Scattered clouds at a height of 2700 ft
Broken clouds at a height of 4500 ft

METAR: EDVK 171850Z VRB02KT 7000 FEW002 SCT027 BKN045 02/02 Q1025

Time: 05:30 (04:30 UTC)

Forecast

The report was made 11 hours and 30 minutes ago, at 17:00 UTC
Forecast valid from 17 at 18 UTC to 18 at 03 UTC
Wind 2 kt from variable directions
Visibility 10 km or more
Few clouds at a height of 1500 ft
Scattered clouds at a height of 4500 ft

TAF: EDVK 171700Z 1718/1803 VRB02KT 9999 FEW015 SCT045

Weather observations and forecasts of more than 4000 airports (METAR and TAF reports).

The available stations are represented by yellow and red dots on the map.

Hover mouse over dot to see the name of the station.

Then click to see weather observations and forecasts.

To change the map : click on the green buttons with a black cross to zoom in, on the green button with a dash to zoom out, or on the green arrows for adjacent maps.


METAR-TAF: